sensor_id;sensor_type;location;lat;lon;timestamp;temperature;humidity
37846;DHT22;23686;49.828;8.702;2023-03-01T00:01:21;1.20;93.70
37846;DHT22;23686;49.828;8.702;2023-03-01T00:03:47;1.30;95.00
37846;DHT22;23686;49.828;8.702;2023-03-01T00:06:13;1.30;97.20
37846;DHT22;23686;49.828;8.702;2023-03-01T00:08:39;1.40;95.50
37846;DHT22;23686;49.828;8.702;2023-03-01T00:11:15;1.30;92.90
37846;DHT22;23686;49.828;8.702;2023-03-01T00:13:41;1.30;92.40
37846;DHT22;23686;49.828;8.702;2023-03-01T00:16:13;1.30;92.00
37846;DHT22;23686;49.828;8.702;2023-03-01T00:18:39;1.20;92.20
37846;DHT22;23686;49.828;8.702;2023-03-01T00:21:05;1.20;92.20
37846;DHT22;23686;49.828;8.702;2023-03-01T00:23:31;1.20;92.40
37846;DHT22;23686;49.828;8.702;2023-03-01T00:25:58;1.20;93.30
37846;DHT22;23686;49.828;8.702;2023-03-01T00:28:24;1.10;93.10
37846;DHT22;23686;49.828;8.702;2023-03-01T00:30:49;1.10;93.00
37846;DHT22;23686;49.828;8.702;2023-03-01T00:33:15;1.10;93.20
37846;DHT22;23686;49.828;8.702;2023-03-01T00:35:41;1.10;93.20
37846;DHT22;23686;49.828;8.702;2023-03-01T00:38:06;1.10;93.60
37846;DHT22;23686;49.828;8.702;2023-03-01T00:40:34;1.20;93.60
37846;DHT22;23686;49.828;8.702;2023-03-01T00:43:00;1.20;93.70
37846;DHT22;23686;49.828;8.702;2023-03-01T00:45:26;1.20;93.00
37846;DHT22;23686;49.828;8.702;2023-03-01T00:47:52;1.30;93.60
37846;DHT22;23686;49.828;8.702;2023-03-01T00:50:18;1.30;94.00
37846;DHT22;23686;49.828;8.702;2023-03-01T00:52:45;1.40;94.50
37846;DHT22;23686;49.828;8.702;2023-03-01T00:55:11;1.30;93.30
37846;DHT22;23686;49.828;8.702;2023-03-01T00:57:38;1.40;93.00
37846;DHT22;23686;49.828;8.702;2023-03-01T01:00:05;1.50;92.80
37846;DHT22;23686;49.828;8.702;2023-03-01T01:02:33;1.50;93.40
37846;DHT22;23686;49.828;8.702;2023-03-01T01:04:59;1.40;93.80
37846;DHT22;23686;49.828;8.702;2023-03-01T01:07:24;1.40;93.90
37846;DHT22;23686;49.828;8.702;2023-03-01T01:09:50;1.40;93.30
37846;DHT22;23686;49.828;8.702;2023-03-01T01:12:16;1.40;93.30
37846;DHT22;23686;49.828;8.702;2023-03-01T01:14:41;1.40;93.40
37846;DHT22;23686;49.828;8.702;2023-03-01T01:17:07;1.40;93.20
37846;DHT22;23686;49.828;8.702;2023-03-01T01:19:32;1.40;93.70
37846;DHT22;23686;49.828;8.702;2023-03-01T01:21:58;1.40;94.00
37846;DHT22;23686;49.828;8.702;2023-03-01T01:24:23;1.30;94.10
37846;DHT22;23686;49.828;8.702;2023-03-01T01:26:49;1.30;93.60
37846;DHT22;23686;49.828;8.702;2023-03-01T01:29:15;1.30;93.40
37846;DHT22;23686;49.828;8.702;2023-03-01T01:31:41;1.30;93.60
37846;DHT22;23686;49.828;8.702;2023-03-01T01:34:12;1.30;93.30
37846;DHT22;23686;49.828;8.702;2023-03-01T01:36:38;1.30;93.40
37846;DHT22;23686;49.828;8.702;2023-03-01T01:39:04;1.20;93.80
37846;DHT22;23686;49.828;8.702;2023-03-01T01:41:30;1.30;93.70
37846;DHT22;23686;49.828;8.702;2023-03-01T01:46:45;1.30;93.90
37846;DHT22;23686;49.828;8.702;2023-03-01T01:49:20;1.30;93.70
37846;DHT22;23686;49.828;8.702;2023-03-01T01:51:49;1.20;93.80
37846;DHT22;23686;49.828;8.702;2023-03-01T01:54:31;1.20;94.10
37846;DHT22;23686;49.828;8.702;2023-03-01T01:57:03;1.10;94.40
37846;DHT22;23686;49.828;8.702;2023-03-01T01:59:32;1.10;95.00
37846;DHT22;23686;49.828;8.702;2023-03-01T02:02:00;1.10;95.20
37846;DHT22;23686;49.828;8.702;2023-03-01T02:04:27;1.00;95.20
37846;DHT22;23686;49.828;8.702;2023-03-01T02:07:01;1.00;95.30
37846;DHT22;23686;49.828;8.702;2023-03-01T02:09:30;1.10;95.30
37846;DHT22;23686;49.828;8.702;2023-03-01T02:11:56;1.10;95.20
37846;DHT22;23686;49.828;8.702;2023-03-01T02:14:22;1.00;95.40
37846;DHT22;23686;49.828;8.702;2023-03-01T02:16:48;1.10;95.60
37846;DHT22;23686;49.828;8.702;2023-03-01T02:19:30;1.10;96.10
37846;DHT22;23686;49.828;8.702;2023-03-01T02:22:06;1.00;96.60
37846;DHT22;23686;49.828;8.702;2023-03-01T02:24:59;1.00;95.90
37846;DHT22;23686;49.828;8.702;2023-03-01T02:27:37;0.90;95.70
37846;DHT22;23686;49.828;8.702;2023-03-01T02:30:04;0.80;96.20
37846;DHT22;23686;49.828;8.702;2023-03-01T02:32:30;0.80;96.40
37846;DHT22;23686;49.828;8.702;2023-03-01T02:34:56;0.80;96.50
37846;DHT22;23686;49.828;8.702;2023-03-01T02:37:22;0.80;96.70
37846;DHT22;23686;49.828;8.702;2023-03-01T02:39:56;0.90;96.40
37846;DHT22;23686;49.828;8.702;2023-03-01T02:42:26;0.90;96.60
37846;DHT22;23686;49.828;8.702;2023-03-01T02:44:55;0.80;96.60
37846;DHT22;23686;49.828;8.702;2023-03-01T02:47:20;0.80;96.80
37846;DHT22;23686;49.828;8.702;2023-03-01T02:49:46;0.80;96.70
37846;DHT22;23686;49.828;8.702;2023-03-01T02:55:05;0.90;99.00
37846;DHT22;23686;49.828;8.702;2023-03-01T02:57:34;1.00;99.00
37846;DHT22;23686;49.828;8.702;2023-03-01T03:00:12;0.90;98.00
37846;DHT22;23686;49.828;8.702;2023-03-01T03:02:49;0.90;97.90
37846;DHT22;23686;49.828;8.702;2023-03-01T03:05:18;0.90;98.00
37846;DHT22;23686;49.828;8.702;2023-03-01T03:07:45;1.00;97.90
37846;DHT22;23686;49.828;8.702;2023-03-01T03:10:18;1.00;97.30
37846;DHT22;23686;49.828;8.702;2023-03-01T03:12:49;1.00;97.80
37846;DHT22;23686;49.828;8.702;2023-03-01T03:15:16;1.00;97.30
37846;DHT22;23686;49.828;8.702;2023-03-01T03:17:42;1.10;97.00
37846;DHT22;23686;49.828;8.702;2023-03-01T03:20:10;1.10;96.60
37846;DHT22;23686;49.828;8.702;2023-03-01T03:22:38;1.10;97.20
37846;DHT22;23686;49.828;8.702;2023-03-01T03:25:06;1.10;96.70
37846;DHT22;23686;49.828;8.702;2023-03-01T03:27:38;1.10;96.50
37846;DHT22;23686;49.828;8.702;2023-03-01T03:30:06;1.10;96.20
37846;DHT22;23686;49.828;8.702;2023-03-01T03:32:40;1.10;96.20
37846;DHT22;23686;49.828;8.702;2023-03-01T03:35:09;1.10;95.70
37846;DHT22;23686;49.828;8.702;2023-03-01T03:37:41;1.10;96.20
37846;DHT22;23686;49.828;8.702;2023-03-01T03:40:31;1.20;95.70
37846;DHT22;23686;49.828;8.702;2023-03-01T03:42:56;1.20;95.90
37846;DHT22;23686;49.828;8.702;2023-03-01T03:45:22;1.20;95.90
37846;DHT22;23686;49.828;8.702;2023-03-01T03:47:48;1.20;95.80
37846;DHT22;23686;49.828;8.702;2023-03-01T03:50:15;1.10;95.80
37846;DHT22;23686;49.828;8.702;2023-03-01T03:52:42;1.10;95.80
37846;DHT22;23686;49.828;8.702;2023-03-01T03:55:09;1.00;96.00
37846;DHT22;23686;49.828;8.702;2023-03-01T03:57:42;1.00;96.00
37846;DHT22;23686;49.828;8.702;2023-03-01T04:00:10;1.10;96.50
37846;DHT22;23686;49.828;8.702;2023-03-01T04:02:45;1.10;96.20
37846;DHT22;23686;49.828;8.702;2023-03-01T04:05:12;1.10;96.20
37846;DHT22;23686;49.828;8.702;2023-03-01T04:07:39;1.20;97.00
37846;DHT22;23686;49.828;8.702;2023-03-01T04:10:11;1.20;96.20
37846;DHT22;23686;49.828;8.702;2023-03-01T04:12:37;1.20;96.40
37846;DHT22;23686;49.828;8.702;2023-03-01T04:15:04;1.20;96.10
37846;DHT22;23686;49.828;8.702;2023-03-01T04:17:46;1.20;96.10
37846;DHT22;23686;49.828;8.702;2023-03-01T04:20:15;1.20;96.40
37846;DHT22;23686;49.828;8.702;2023-03-01T04:22:44;1.20;96.70
37846;DHT22;23686;49.828;8.702;2023-03-01T04:25:13;1.10;96.50
37846;DHT22;23686;49.828;8.702;2023-03-01T04:27:40;1.10;96.80
37846;DHT22;23686;49.828;8.702;2023-03-01T04:30:06;1.10;97.20
37846;DHT22;23686;49.828;8.702;2023-03-01T04:32:32;1.10;97.20
37846;DHT22;23686;49.828;8.702;2023-03-01T04:34:58;1.10;97.10
37846;DHT22;23686;49.828;8.702;2023-03-01T04:37:23;1.10;97.10
37846;DHT22;23686;49.828;8.702;2023-03-01T04:39:49;1.10;97.00
37846;DHT22;23686;49.828;8.702;2023-03-01T04:42:15;1.00;97.20
37846;DHT22;23686;49.828;8.702;2023-03-01T04:44:42;1.00;97.00
37846;DHT22;23686;49.828;8.702;2023-03-01T04:47:07;1.00;97.50
37846;DHT22;23686;49.828;8.702;2023-03-01T04:49:33;1.00;97.70
37846;DHT22;23686;49.828;8.702;2023-03-01T04:51:58;1.00;97.50
37846;DHT22;23686;49.828;8.702;2023-03-01T04:54:27;0.90;97.70
37846;DHT22;23686;49.828;8.702;2023-03-01T04:56:54;0.90;98.10
37846;DHT22;23686;49.828;8.702;2023-03-01T04:59:19;0.90;97.50
37846;DHT22;23686;49.828;8.702;2023-03-01T05:01:50;1.00;97.70
37846;DHT22;23686;49.828;8.702;2023-03-01T05:04:16;1.00;97.80
37846;DHT22;23686;49.828;8.702;2023-03-01T05:06:42;1.00;97.30
37846;DHT22;23686;49.828;8.702;2023-03-01T05:09:08;1.00;97.80
37846;DHT22;23686;49.828;8.702;2023-03-01T05:11:34;1.00;97.70
37846;DHT22;23686;49.828;8.702;2023-03-01T05:14:04;1.10;97.70
37846;DHT22;23686;49.828;8.702;2023-03-01T05:16:30;1.10;97.40
37846;DHT22;23686;49.828;8.702;2023-03-01T05:18:57;1.10;96.90
37846;DHT22;23686;49.828;8.702;2023-03-01T05:21:22;1.20;97.60
37846;DHT22;23686;49.828;8.702;2023-03-01T05:23:48;1.20;97.20
37846;DHT22;23686;49.828;8.702;2023-03-01T05:26:15;1.30;96.90
37846;DHT22;23686;49.828;8.702;2023-03-01T05:28:42;1.30;96.40
37846;DHT22;23686;49.828;8.702;2023-03-01T05:31:08;1.30;96.20
37846;DHT22;23686;49.828;8.702;2023-03-01T05:33:39;1.30;96.00
37846;DHT22;23686;49.828;8.702;2023-03-01T05:36:06;1.30;96.40
37846;DHT22;23686;49.828;8.702;2023-03-01T05:38:32;1.30;96.30
37846;DHT22;23686;49.828;8.702;2023-03-01T05:40:58;1.30;95.90
37846;DHT22;23686;49.828;8.702;2023-03-01T05:43:24;1.30;96.10
37846;DHT22;23686;49.828;8.702;2023-03-01T05:45:49;1.20;96.50
37846;DHT22;23686;49.828;8.702;2023-03-01T05:48:15;1.20;96.60
37846;DHT22;23686;49.828;8.702;2023-03-01T05:50:43;1.20;96.40
37846;DHT22;23686;49.828;8.702;2023-03-01T05:53:10;1.30;95.90
37846;DHT22;23686;49.828;8.702;2023-03-01T05:55:36;1.20;96.30
37846;DHT22;23686;49.828;8.702;2023-03-01T05:58:04;1.30;96.20
37846;DHT22;23686;49.828;8.702;2023-03-01T06:00:30;1.30;96.10
37846;DHT22;23686;49.828;8.702;2023-03-01T06:02:56;1.30;96.10
37846;DHT22;23686;49.828;8.702;2023-03-01T06:05:23;1.30;95.80
37846;DHT22;23686;49.828;8.702;2023-03-01T06:07:51;1.30;95.80
37846;DHT22;23686;49.828;8.702;2023-03-01T06:10:18;1.30;95.60
37846;DHT22;23686;49.828;8.702;2023-03-01T06:12:44;1.30;96.30
37846;DHT22;23686;49.828;8.702;2023-03-01T06:15:11;1.30;96.20
37846;DHT22;23686;49.828;8.702;2023-03-01T06:17:39;1.20;97.10
37846;DHT22;23686;49.828;8.702;2023-03-01T06:22:34;1.20;96.70
37846;DHT22;23686;49.828;8.702;2023-03-01T06:25:00;1.20;97.00
37846;DHT22;23686;49.828;8.702;2023-03-01T06:27:25;1.20;96.90
37846;DHT22;23686;49.828;8.702;2023-03-01T06:29:51;1.30;96.70
37846;DHT22;23686;49.828;8.702;2023-03-01T06:32:16;1.20;96.40
37846;DHT22;23686;49.828;8.702;2023-03-01T06:34:42;1.30;96.50
37846;DHT22;23686;49.828;8.702;2023-03-01T06:37:07;1.30;96.20
37846;DHT22;23686;49.828;8.702;2023-03-01T06:39:33;1.40;96.50
37846;DHT22;23686;49.828;8.702;2023-03-01T06:41:59;1.40;96.10
37846;DHT22;23686;49.828;8.702;2023-03-01T06:44:24;1.50;95.90
37846;DHT22;23686;49.828;8.702;2023-03-01T06:46:50;1.50;95.60
37846;DHT22;23686;49.828;8.702;2023-03-01T06:49:16;1.50;95.10
37846;DHT22;23686;49.828;8.702;2023-03-01T06:51:43;1.60;95.10
37846;DHT22;23686;49.828;8.702;2023-03-01T06:54:09;1.60;94.80
37846;DHT22;23686;49.828;8.702;2023-03-01T06:56:35;1.60;94.30
37846;DHT22;23686;49.828;8.702;2023-03-01T06:59:01;1.70;94.30
37846;DHT22;23686;49.828;8.702;2023-03-01T07:01:28;1.70;94.20
37846;DHT22;23686;49.828;8.702;2023-03-01T07:03:53;1.70;94.20
37846;DHT22;23686;49.828;8.702;2023-03-01T07:06:19;1.70;94.20
37846;DHT22;23686;49.828;8.702;2023-03-01T07:08:44;1.80;94.10
37846;DHT22;23686;49.828;8.702;2023-03-01T07:11:10;1.90;93.30
37846;DHT22;23686;49.828;8.702;2023-03-01T07:13:35;1.90;93.40
37846;DHT22;23686;49.828;8.702;2023-03-01T07:16:01;1.80;93.00
37846;DHT22;23686;49.828;8.702;2023-03-01T07:18:26;1.80;92.80
37846;DHT22;23686;49.828;8.702;2023-03-01T07:20:52;1.80;92.70
37846;DHT22;23686;49.828;8.702;2023-03-01T07:23:18;1.70;93.20
37846;DHT22;23686;49.828;8.702;2023-03-01T07:25:44;1.80;93.40
37846;DHT22;23686;49.828;8.702;2023-03-01T07:28:09;1.70;93.30
37846;DHT22;23686;49.828;8.702;2023-03-01T07:30:35;1.70;93.50
37846;DHT22;23686;49.828;8.702;2023-03-01T07:33:01;1.70;93.30
37846;DHT22;23686;49.828;8.702;2023-03-01T07:35:27;1.70;92.90
37846;DHT22;23686;49.828;8.702;2023-03-01T07:37:53;1.70;93.10
37846;DHT22;23686;49.828;8.702;2023-03-01T07:40:19;1.80;93.60
37846;DHT22;23686;49.828;8.702;2023-03-01T07:42:45;1.90;92.90
37846;DHT22;23686;49.828;8.702;2023-03-01T07:45:11;2.00;92.60
37846;DHT22;23686;49.828;8.702;2023-03-01T07:47:36;2.10;92.80
37846;DHT22;23686;49.828;8.702;2023-03-01T07:50:03;2.20;92.20
37846;DHT22;23686;49.828;8.702;2023-03-01T07:52:29;2.30;91.60
37846;DHT22;23686;49.828;8.702;2023-03-01T07:54:56;2.40;91.00
37846;DHT22;23686;49.828;8.702;2023-03-01T07:57:21;2.40;90.80
37846;DHT22;23686;49.828;8.702;2023-03-01T07:59:47;2.50;91.10
37846;DHT22;23686;49.828;8.702;2023-03-01T08:02:13;2.60;90.30
37846;DHT22;23686;49.828;8.702;2023-03-01T08:04:40;2.70;89.70
37846;DHT22;23686;49.828;8.702;2023-03-01T08:07:06;2.80;88.90
37846;DHT22;23686;49.828;8.702;2023-03-01T08:09:34;2.80;88.80
37846;DHT22;23686;49.828;8.702;2023-03-01T08:12:00;2.80;89.20
37846;DHT22;23686;49.828;8.702;2023-03-01T08:14:25;2.90;88.40
37846;DHT22;23686;49.828;8.702;2023-03-01T08:16:51;3.00;87.60
37846;DHT22;23686;49.828;8.702;2023-03-01T08:19:17;3.00;87.30
37846;DHT22;23686;49.828;8.702;2023-03-01T08:21:43;3.10;87.80
37846;DHT22;23686;49.828;8.702;2023-03-01T08:24:09;3.10;87.00
37846;DHT22;23686;49.828;8.702;2023-03-01T08:26:36;3.10;86.90
37846;DHT22;23686;49.828;8.702;2023-03-01T08:29:02;3.20;87.00
37846;DHT22;23686;49.828;8.702;2023-03-01T08:31:35;3.30;86.40
37846;DHT22;23686;49.828;8.702;2023-03-01T08:34:04;3.30;86.40
37846;DHT22;23686;49.828;8.702;2023-03-01T08:36:33;3.30;85.70
37846;DHT22;23686;49.828;8.702;2023-03-01T08:39:00;3.40;85.90
37846;DHT22;23686;49.828;8.702;2023-03-01T08:41:25;3.40;85.70
37846;DHT22;23686;49.828;8.702;2023-03-01T08:43:51;3.60;85.60
37846;DHT22;23686;49.828;8.702;2023-03-01T08:46:18;3.60;85.20
37846;DHT22;23686;49.828;8.702;2023-03-01T08:48:43;3.60;84.20
37846;DHT22;23686;49.828;8.702;2023-03-01T08:51:17;3.70;84.40
37846;DHT22;23686;49.828;8.702;2023-03-01T08:53:44;3.80;84.30
37846;DHT22;23686;49.828;8.702;2023-03-01T08:56:09;3.80;83.70
37846;DHT22;23686;49.828;8.702;2023-03-01T08:58:36;3.80;83.70
37846;DHT22;23686;49.828;8.702;2023-03-01T09:01:10;3.90;83.70
37846;DHT22;23686;49.828;8.702;2023-03-01T09:03:36;3.90;83.00
37846;DHT22;23686;49.828;8.702;2023-03-01T09:06:04;4.00;83.20
37846;DHT22;23686;49.828;8.702;2023-03-01T09:08:30;4.00;83.00
37846;DHT22;23686;49.828;8.702;2023-03-01T09:10:55;4.10;82.90
37846;DHT22;23686;49.828;8.702;2023-03-01T09:13:21;4.10;83.20
37846;DHT22;23686;49.828;8.702;2023-03-01T09:15:50;4.20;82.80
37846;DHT22;23686;49.828;8.702;2023-03-01T09:18:15;4.30;82.90
37846;DHT22;23686;49.828;8.702;2023-03-01T09:20:41;4.30;82.30
37846;DHT22;23686;49.828;8.702;2023-03-01T09:23:07;4.40;82.40
37846;DHT22;23686;49.828;8.702;2023-03-01T09:25:34;4.40;81.60
37846;DHT22;23686;49.828;8.702;2023-03-01T09:27:59;4.40;81.20
37846;DHT22;23686;49.828;8.702;2023-03-01T09:30:25;4.50;81.60
37846;DHT22;23686;49.828;8.702;2023-03-01T09:32:50;4.60;81.40
37846;DHT22;23686;49.828;8.702;2023-03-01T09:35:16;4.70;80.90
37846;DHT22;23686;49.828;8.702;2023-03-01T09:37:41;4.70;81.10
37846;DHT22;23686;49.828;8.702;2023-03-01T09:40:23;4.80;80.10
37846;DHT22;23686;49.828;8.702;2023-03-01T09:43:05;4.90;79.30
37846;DHT22;23686;49.828;8.702;2023-03-01T09:45:36;4.90;79.10
37846;DHT22;23686;49.828;8.702;2023-03-01T09:48:05;4.90;78.80
37846;DHT22;23686;49.828;8.702;2023-03-01T09:50:40;4.90;78.70
37846;DHT22;23686;49.828;8.702;2023-03-01T09:53:11;5.00;78.60
37846;DHT22;23686;49.828;8.702;2023-03-01T09:55:55;5.00;78.80
37846;DHT22;23686;49.828;8.702;2023-03-01T09:58:46;5.10;78.60
37846;DHT22;23686;49.828;8.702;2023-03-01T10:04:16;5.20;78.40
37846;DHT22;23686;49.828;8.702;2023-03-01T10:06:58;5.30;78.10
37846;DHT22;23686;49.828;8.702;2023-03-01T10:09:29;5.40;78.70
37846;DHT22;23686;49.828;8.702;2023-03-01T10:11:55;5.50;78.20
37846;DHT22;23686;49.828;8.702;2023-03-01T10:14:38;5.60;77.30
37846;DHT22;23686;49.828;8.702;2023-03-01T10:17:27;5.60;76.70
37846;DHT22;23686;49.828;8.702;2023-03-01T10:19:59;5.60;76.50
37846;DHT22;23686;49.828;8.702;2023-03-01T10:22:36;5.60;76.90
37846;DHT22;23686;49.828;8.702;2023-03-01T10:25:03;5.60;76.50
37846;DHT22;23686;49.828;8.702;2023-03-01T10:27:50;5.70;76.80
37846;DHT22;23686;49.828;8.702;2023-03-01T10:30:40;5.70;76.60
37846;DHT22;23686;49.828;8.702;2023-03-01T10:33:17;5.80;76.40
37846;DHT22;23686;49.828;8.702;2023-03-01T10:35:44;5.90;76.20
37846;DHT22;23686;49.828;8.702;2023-03-01T10:38:12;6.00;76.30
37846;DHT22;23686;49.828;8.702;2023-03-01T10:40:56;6.10;76.00
37846;DHT22;23686;49.828;8.702;2023-03-01T10:43:23;6.10;75.50
37846;DHT22;23686;49.828;8.702;2023-03-01T10:45:50;6.20;75.50
37846;DHT22;23686;49.828;8.702;2023-03-01T10:48:23;6.20;75.20
37846;DHT22;23686;49.828;8.702;2023-03-01T10:51:06;6.30;74.70
37846;DHT22;23686;49.828;8.702;2023-03-01T10:53:42;6.30;75.30
37846;DHT22;23686;49.828;8.702;2023-03-01T10:56:13;6.30;75.00
37846;DHT22;23686;49.828;8.702;2023-03-01T10:59:02;6.30;74.20
37846;DHT22;23686;49.828;8.702;2023-03-01T11:01:29;6.40;74.40
37846;DHT22;23686;49.828;8.702;2023-03-01T11:06:33;6.40;74.10
37846;DHT22;23686;49.828;8.702;2023-03-01T11:09:14;6.50;74.50
37846;DHT22;23686;49.828;8.702;2023-03-01T11:11:41;6.50;74.00
37846;DHT22;23686;49.828;8.702;2023-03-01T11:14:15;6.40;73.50
37846;DHT22;23686;49.828;8.702;2023-03-01T11:16:44;6.50;75.00
37846;DHT22;23686;49.828;8.702;2023-03-01T11:21:47;6.70;74.10
37846;DHT22;23686;49.828;8.702;2023-03-01T11:24:16;6.70;73.60
37846;DHT22;23686;49.828;8.702;2023-03-01T11:26:47;6.80;74.00
37846;DHT22;23686;49.828;8.702;2023-03-01T11:29:29;6.90;74.20
37846;DHT22;23686;49.828;8.702;2023-03-01T11:31:59;6.90;73.30
37846;DHT22;23686;49.828;8.702;2023-03-01T11:34:57;7.00;73.90
37846;DHT22;23686;49.828;8.702;2023-03-01T11:40:49;7.10;72.60
37846;DHT22;23686;49.828;8.702;2023-03-01T11:49:21;7.20;71.60
37846;DHT22;23686;49.828;8.702;2023-03-01T12:03:23;7.30;70.70
37846;DHT22;23686;49.828;8.702;2023-03-01T12:05:54;7.30;70.80
37846;DHT22;23686;49.828;8.702;2023-03-01T12:08:41;7.40;70.70
37846;DHT22;23686;49.828;8.702;2023-03-01T12:14:17;7.30;70.30
37846;DHT22;23686;49.828;8.702;2023-03-01T12:16:59;7.40;70.80
37846;DHT22;23686;49.828;8.702;2023-03-01T12:22:09;7.50;70.30
37846;DHT22;23686;49.828;8.702;2023-03-01T12:25:10;7.60;70.80
37846;DHT22;23686;49.828;8.702;2023-03-01T12:27:55;7.60;69.60
37846;DHT22;23686;49.828;8.702;2023-03-01T12:33:20;7.70;70.00
37846;DHT22;23686;49.828;8.702;2023-03-01T12:49:40;7.80;68.50
37846;DHT22;23686;49.828;8.702;2023-03-01T12:54:37;7.80;67.90
37846;DHT22;23686;49.828;8.702;2023-03-01T12:57:21;7.80;68.40
37846;DHT22;23686;49.828;8.702;2023-03-01T13:08:33;8.00;68.50
37846;DHT22;23686;49.828;8.702;2023-03-01T13:11:06;8.00;68.60
37846;DHT22;23686;49.828;8.702;2023-03-01T13:13:37;8.10;67.40
37846;DHT22;23686;49.828;8.702;2023-03-01T13:19:10;8.20;67.90
37846;DHT22;23686;49.828;8.702;2023-03-01T13:21:38;8.10;68.00
37846;DHT22;23686;49.828;8.702;2023-03-01T13:24:04;8.10;68.00
37846;DHT22;23686;49.828;8.702;2023-03-01T13:26:29;8.20;68.10
37846;DHT22;23686;49.828;8.702;2023-03-01T13:28:56;8.20;68.70
37846;DHT22;23686;49.828;8.702;2023-03-01T13:33:51;8.20;67.50
37846;DHT22;23686;49.828;8.702;2023-03-01T13:44:24;8.30;67.90
37846;DHT22;23686;49.828;8.702;2023-03-01T13:49:41;8.30;66.80
37846;DHT22;23686;49.828;8.702;2023-03-01T13:54:56;8.30;67.40
37846;DHT22;23686;49.828;8.702;2023-03-01T13:57:26;8.40;67.80
37846;DHT22;23686;49.828;8.702;2023-03-01T13:59:53;8.40;68.20
37846;DHT22;23686;49.828;8.702;2023-03-01T14:02:19;8.40;67.30
37846;DHT22;23686;49.828;8.702;2023-03-01T14:04:59;8.50;67.10
37846;DHT22;23686;49.828;8.702;2023-03-01T14:07:26;8.50;67.00
37846;DHT22;23686;49.828;8.702;2023-03-01T14:09:58;8.50;67.60
37846;DHT22;23686;49.828;8.702;2023-03-01T14:15:22;8.50;66.80
37846;DHT22;23686;49.828;8.702;2023-03-01T14:17:57;8.50;66.40
37846;DHT22;23686;49.828;8.702;2023-03-01T14:20:30;8.50;66.70
37846;DHT22;23686;49.828;8.702;2023-03-01T14:22:58;8.50;66.20
37846;DHT22;23686;49.828;8.702;2023-03-01T14:25:28;8.50;65.70
37846;DHT22;23686;49.828;8.702;2023-03-01T14:28:18;8.50;65.70
37846;DHT22;23686;49.828;8.702;2023-03-01T14:30:53;8.50;65.80
37846;DHT22;23686;49.828;8.702;2023-03-01T14:33:20;8.50;65.50
37846;DHT22;23686;49.828;8.702;2023-03-01T14:35:58;8.50;65.60
37846;DHT22;23686;49.828;8.702;2023-03-01T14:38:33;8.50;65.80
37846;DHT22;23686;49.828;8.702;2023-03-01T14:41:03;8.50;66.30
37846;DHT22;23686;49.828;8.702;2023-03-01T14:43:30;8.50;66.20
37846;DHT22;23686;49.828;8.702;2023-03-01T14:45:56;8.50;66.00
37846;DHT22;23686;49.828;8.702;2023-03-01T14:48:23;8.50;66.20
37846;DHT22;23686;49.828;8.702;2023-03-01T14:50:49;8.60;66.10
37846;DHT22;23686;49.828;8.702;2023-03-01T14:53:27;8.50;66.70
37846;DHT22;23686;49.828;8.702;2023-03-01T14:56:01;8.60;67.40
37846;DHT22;23686;49.828;8.702;2023-03-01T14:58:32;8.50;67.10
37846;DHT22;23686;49.828;8.702;2023-03-01T15:01:02;8.60;67.90
37846;DHT22;23686;49.828;8.702;2023-03-01T15:03:49;8.60;67.60
37846;DHT22;23686;49.828;8.702;2023-03-01T15:06:18;8.60;67.90
37846;DHT22;23686;49.828;8.702;2023-03-01T15:08:47;8.60;67.50
37846;DHT22;23686;49.828;8.702;2023-03-01T15:11:24;8.60;68.10
37846;DHT22;23686;49.828;8.702;2023-03-01T15:13:52;8.60;68.40
37846;DHT22;23686;49.828;8.702;2023-03-01T15:16:18;8.50;68.60
37846;DHT22;23686;49.828;8.702;2023-03-01T15:18:46;8.50;68.70
37846;DHT22;23686;49.828;8.702;2023-03-01T15:21:22;8.50;68.80
37846;DHT22;23686;49.828;8.702;2023-03-01T15:23:54;8.50;69.10
37846;DHT22;23686;49.828;8.702;2023-03-01T15:26:30;8.50;69.00
37846;DHT22;23686;49.828;8.702;2023-03-01T15:28:58;8.40;68.90
37846;DHT22;23686;49.828;8.702;2023-03-01T15:31:34;8.40;69.10
37846;DHT22;23686;49.828;8.702;2023-03-01T15:34:23;8.40;69.60
37846;DHT22;23686;49.828;8.702;2023-03-01T15:36:50;8.40;70.00
37846;DHT22;23686;49.828;8.702;2023-03-01T15:39:35;8.30;69.70
37846;DHT22;23686;49.828;8.702;2023-03-01T15:42:08;8.30;69.90
37846;DHT22;23686;49.828;8.702;2023-03-01T15:44:36;8.20;69.90
37846;DHT22;23686;49.828;8.702;2023-03-01T15:47:23;8.20;69.90
37846;DHT22;23686;49.828;8.702;2023-03-01T15:49:52;8.20;70.50
37846;DHT22;23686;49.828;8.702;2023-03-01T15:52:40;8.20;70.40
37846;DHT22;23686;49.828;8.702;2023-03-01T15:55:25;8.20;70.70
37846;DHT22;23686;49.828;8.702;2023-03-01T16:00:30;8.10;70.60
37846;DHT22;23686;49.828;8.702;2023-03-01T16:02:56;8.10;70.40
37846;DHT22;23686;49.828;8.702;2023-03-01T16:07:49;8.10;71.20
37846;DHT22;23686;49.828;8.702;2023-03-01T16:10:16;8.00;71.20
37846;DHT22;23686;49.828;8.702;2023-03-01T16:12:42;7.90;71.00
37846;DHT22;23686;49.828;8.702;2023-03-01T16:15:32;7.90;71.10
37846;DHT22;23686;49.828;8.702;2023-03-01T16:17:58;7.90;71.50
37846;DHT22;23686;49.828;8.702;2023-03-01T16:20:24;7.90;72.00
37846;DHT22;23686;49.828;8.702;2023-03-01T16:22:51;7.80;71.70
37846;DHT22;23686;49.828;8.702;2023-03-01T16:25:19;7.80;71.70
37846;DHT22;23686;49.828;8.702;2023-03-01T16:27:46;7.80;71.70
37846;DHT22;23686;49.828;8.702;2023-03-01T16:30:13;7.70;71.90
37846;DHT22;23686;49.828;8.702;2023-03-01T16:32:41;7.60;72.20
37846;DHT22;23686;49.828;8.702;2023-03-01T16:35:08;7.60;72.20
37846;DHT22;23686;49.828;8.702;2023-03-01T16:37:35;7.50;72.30
37846;DHT22;23686;49.828;8.702;2023-03-01T16:40:02;7.50;72.40
37846;DHT22;23686;49.828;8.702;2023-03-01T16:42:33;7.40;72.70
37846;DHT22;23686;49.828;8.702;2023-03-01T16:44:59;7.40;72.60
37846;DHT22;23686;49.828;8.702;2023-03-01T16:47:25;7.40;73.50
37846;DHT22;23686;49.828;8.702;2023-03-01T16:49:52;7.30;73.00
37846;DHT22;23686;49.828;8.702;2023-03-01T16:52:18;7.30;73.10
37846;DHT22;23686;49.828;8.702;2023-03-01T16:54:44;7.30;73.00
37846;DHT22;23686;49.828;8.702;2023-03-01T16:57:09;7.20;73.70
37846;DHT22;23686;49.828;8.702;2023-03-01T16:59:35;7.10;73.80
37846;DHT22;23686;49.828;8.702;2023-03-01T17:02:01;7.10;73.90
37846;DHT22;23686;49.828;8.702;2023-03-01T17:04:27;7.00;73.90
37846;DHT22;23686;49.828;8.702;2023-03-01T17:06:52;7.00;74.30
37846;DHT22;23686;49.828;8.702;2023-03-01T17:09:18;6.90;74.20
37846;DHT22;23686;49.828;8.702;2023-03-01T17:11:48;6.90;74.70
37846;DHT22;23686;49.828;8.702;2023-03-01T17:14:15;6.80;75.00
37846;DHT22;23686;49.828;8.702;2023-03-01T17:16:41;6.70;75.00
37846;DHT22;23686;49.828;8.702;2023-03-01T17:19:07;6.70;75.20
37846;DHT22;23686;49.828;8.702;2023-03-01T17:21:33;6.60;75.30
37846;DHT22;23686;49.828;8.702;2023-03-01T17:23:59;6.60;75.40
37846;DHT22;23686;49.828;8.702;2023-03-01T17:26:25;6.50;75.40
37846;DHT22;23686;49.828;8.702;2023-03-01T17:28:52;6.50;76.00
37846;DHT22;23686;49.828;8.702;2023-03-01T17:31:20;6.40;76.00
37846;DHT22;23686;49.828;8.702;2023-03-01T17:33:46;6.40;76.10
37846;DHT22;23686;49.828;8.702;2023-03-01T17:36:14;6.30;76.10